createdAt,value
2023-04-26T00:00:32.616Z,622.73
2023-04-26T00:01:32.622Z,622.67
2023-04-26T00:02:32.796Z,622.71
2023-04-26T00:03:32.948Z,622.74
2023-04-26T00:04:32.748Z,622.77
2023-04-26T00:05:32.621Z,622.71
2023-04-26T00:06:32.552Z,622.75
2023-04-26T00:07:32.576Z,622.81
2023-04-26T00:08:32.534Z,622.77
2023-04-26T00:09:32.553Z,622.76
2023-04-26T00:10:32.528Z,622.78
2023-04-26T00:11:32.527Z,622.83
2023-04-26T00:12:32.489Z,622.81
2023-04-26T00:13:32.481Z,622.81
2023-04-26T00:14:32.490Z,622.76
2023-04-26T00:15:32.472Z,622.74
2023-04-26T00:16:32.496Z,622.78
2023-04-26T00:17:32.463Z,622.82
2023-04-26T00:18:32.455Z,622.81
2023-04-26T00:19:32.438Z,622.78
2023-04-26T00:20:32.399Z,622.81
2023-04-26T00:21:32.394Z,622.81
2023-04-26T00:22:32.378Z,622.70
2023-04-26T00:23:32.380Z,622.73
2023-04-26T00:24:32.368Z,622.74
2023-04-26T00:25:32.359Z,622.76
2023-04-26T00:26:32.347Z,622.71
2023-04-26T00:27:32.358Z,622.70
2023-04-26T00:28:32.323Z,622.75
2023-04-26T00:29:32.316Z,622.75
2023-04-26T00:30:32.306Z,622.69
2023-04-26T00:31:32.323Z,622.66
2023-04-26T00:32:32.294Z,622.73
2023-04-26T00:33:32.273Z,622.75
2023-04-26T00:34:32.272Z,622.73
2023-04-26T00:35:32.243Z,622.69
2023-04-26T00:36:32.227Z,622.69
2023-04-26T00:37:32.220Z,622.71
2023-04-26T00:38:32.223Z,622.74
2023-04-26T00:39:32.213Z,622.74
2023-04-26T00:40:32.201Z,622.72
2023-04-26T00:41:32.181Z,622.68
2023-04-26T00:42:39.689Z,622.72
2023-04-26T00:43:32.953Z,622.74
2023-04-26T00:44:32.152Z,622.70
2023-04-26T00:45:32.172Z,622.70
2023-04-26T00:46:32.123Z,622.72
2023-04-26T00:47:32.124Z,622.71
2023-04-26T00:48:32.100Z,622.76
2023-04-26T00:49:32.102Z,622.75
2023-04-26T00:50:32.102Z,622.77
2023-04-26T00:51:32.069Z,622.74
2023-04-26T00:52:32.108Z,622.79
2023-04-26T00:53:32.050Z,622.81
2023-04-26T00:54:32.041Z,622.78
2023-04-26T00:55:32.076Z,622.75
2023-04-26T00:56:32.016Z,622.75
2023-04-26T00:57:32.017Z,622.73
2023-04-26T00:58:31.981Z,622.72
2023-04-26T00:59:32.005Z,622.76
2023-04-26T01:00:32.001Z,622.78
2023-04-26T01:01:32.040Z,622.83
2023-04-26T01:02:32.121Z,622.85
2023-04-26T01:03:32.028Z,622.82
2023-04-26T01:04:31.997Z,622.87
2023-04-26T01:05:31.905Z,622.90
2023-04-26T01:06:32.083Z,622.95
2023-04-26T01:07:31.884Z,622.95
2023-04-26T01:08:31.888Z,622.90
2023-04-26T01:09:31.888Z,622.83
2023-04-26T01:10:31.850Z,622.69
2023-04-26T01:11:31.848Z,622.78
2023-04-26T01:12:31.819Z,622.80
2023-04-26T01:13:31.812Z,622.73
2023-04-26T01:14:31.801Z,622.79
2023-04-26T01:15:31.802Z,622.78
2023-04-26T01:16:31.801Z,622.81
2023-04-26T01:17:31.805Z,622.75
2023-04-26T01:18:31.761Z,622.64
2023-04-26T01:19:31.756Z,622.68
2023-04-26T01:20:31.746Z,622.69
2023-04-26T01:21:31.733Z,622.71
2023-04-26T01:22:31.727Z,622.79
2023-04-26T01:23:31.713Z,622.81
2023-04-26T01:24:31.689Z,622.80
2023-04-26T01:25:31.699Z,622.74
2023-04-26T01:26:31.673Z,622.76
2023-04-26T01:27:31.659Z,622.79
2023-04-26T01:28:31.636Z,622.76
2023-04-26T01:29:31.650Z,622.79
2023-04-26T01:30:31.631Z,622.83
2023-04-26T01:31:31.741Z,622.86
2023-04-26T01:32:31.655Z,622.86
2023-04-26T01:33:31.590Z,622.78
2023-04-26T01:34:31.574Z,622.80
2023-04-26T01:35:31.562Z,622.88
2023-04-26T01:36:31.549Z,622.92
2023-04-26T01:37:31.550Z,622.84
2023-04-26T01:38:31.566Z,622.86
2023-04-26T01:39:31.534Z,622.91
2023-04-26T01:40:31.499Z,622.98
2023-04-26T01:41:31.494Z,623.01
2023-04-26T01:42:31.507Z,623.10
2023-04-26T01:43:31.480Z,623.13
2023-04-26T01:44:31.468Z,623.23
2023-04-26T01:45:31.483Z,622.88
2023-04-26T01:46:31.488Z,622.75
2023-04-26T01:47:31.487Z,622.73
2023-04-26T01:48:31.417Z,622.72
2023-04-26T01:49:31.416Z,622.76
2023-04-26T01:50:31.390Z,622.77
2023-04-26T01:51:31.413Z,622.79
2023-04-26T01:52:31.417Z,622.78
2023-04-26T01:53:31.360Z,622.67
2023-04-26T01:54:31.392Z,622.68
2023-04-26T01:55:31.353Z,622.70
2023-04-26T01:56:31.336Z,622.69
2023-04-26T01:57:31.326Z,622.68
2023-04-26T01:58:31.300Z,622.64
2023-04-26T01:59:31.294Z,622.71
2023-04-26T02:00:31.286Z,622.73
2023-04-26T02:01:31.303Z,622.77
2023-04-26T02:02:31.299Z,622.75
2023-04-26T02:03:31.337Z,622.73
2023-04-26T02:04:31.271Z,622.79
2023-04-26T02:05:31.238Z,622.82
2023-04-26T02:06:31.249Z,622.82
2023-04-26T02:07:31.217Z,622.79
2023-04-26T02:08:31.201Z,622.80
2023-04-26T02:09:31.197Z,622.79
2023-04-26T02:10:31.188Z,622.79
2023-04-26T02:11:31.175Z,622.76
2023-04-26T02:12:31.952Z,622.83
2023-04-26T02:13:31.153Z,622.81
2023-04-26T02:14:31.148Z,622.78
2023-04-26T02:15:31.133Z,622.86
2023-04-26T02:16:31.214Z,622.82
2023-04-26T02:17:31.132Z,622.68
2023-04-26T02:18:31.108Z,622.67
2023-04-26T02:19:31.086Z,622.63
2023-04-26T02:20:31.065Z,622.60
2023-04-26T02:21:31.058Z,622.64
2023-04-26T02:22:31.068Z,622.71
2023-04-26T02:23:31.034Z,622.72
2023-04-26T02:24:33.430Z,622.73
2023-04-26T02:25:31.019Z,622.77
2023-04-26T02:26:31.020Z,622.84
2023-04-26T02:27:30.993Z,622.95
2023-04-26T02:28:30.993Z,623.14
2023-04-26T02:29:43.687Z,623.35
2023-04-26T02:30:30.953Z,623.19
2023-04-26T02:31:30.951Z,623.12
2023-04-26T02:32:30.965Z,623.16
2023-04-26T02:33:30.953Z,623.61
2023-04-26T02:34:30.916Z,623.30
2023-04-26T02:35:30.908Z,623.46
2023-04-26T02:36:30.885Z,623.74
2023-04-26T02:37:30.886Z,623.55
2023-04-26T02:38:30.877Z,623.22
2023-04-26T02:39:30.856Z,623.41
2023-04-26T02:40:30.862Z,623.65
2023-04-26T02:41:30.844Z,623.63
2023-04-26T02:42:30.976Z,623.34
2023-04-26T02:43:38.359Z,623.12
2023-04-26T02:44:30.794Z,623.25
2023-04-26T02:45:30.782Z,623.52
2023-04-26T02:46:30.828Z,625.06
2023-04-26T02:47:30.814Z,623.05
2023-04-26T02:48:30.755Z,622.61
2023-04-26T02:49:30.737Z,622.60
2023-04-26T02:50:30.732Z,622.60
2023-04-26T02:51:30.739Z,622.67
2023-04-26T02:52:30.711Z,622.73
2023-04-26T02:53:30.705Z,622.73
2023-04-26T02:54:30.678Z,622.76
2023-04-26T02:55:30.668Z,622.78
2023-04-26T02:56:30.664Z,622.83
2023-04-26T02:57:30.646Z,622.86
2023-04-26T02:58:30.683Z,622.91
2023-04-26T02:59:30.640Z,622.94
2023-04-26T03:00:30.627Z,623.00
2023-04-26T03:01:30.649Z,622.83
2023-04-26T03:02:30.723Z,622.94
2023-04-26T03:03:30.672Z,623.02
2023-04-26T03:04:30.581Z,623.06
2023-04-26T03:05:30.577Z,623.24
2023-04-26T03:06:30.627Z,622.75
2023-04-26T03:07:30.534Z,622.79
2023-04-26T03:08:30.518Z,622.82
2023-04-26T03:09:30.526Z,622.91
2023-04-26T03:10:30.498Z,623.05
2023-04-26T03:11:30.503Z,623.21
2023-04-26T03:12:30.482Z,622.91
2023-04-26T03:13:30.462Z,622.68
2023-04-26T03:14:30.492Z,622.62
2023-04-26T03:15:30.450Z,622.64
2023-04-26T03:16:30.471Z,622.72
2023-04-26T03:17:30.479Z,622.81
2023-04-26T03:18:30.425Z,622.94
2023-04-26T03:19:30.401Z,623.24
2023-04-26T03:20:30.412Z,623.36
2023-04-26T03:21:30.384Z,623.33
2023-04-26T03:22:30.372Z,623.08
2023-04-26T03:23:30.364Z,622.64
2023-04-26T03:24:30.362Z,622.71
2023-04-26T03:25:30.333Z,622.82
2023-04-26T03:26:30.319Z,622.90
2023-04-26T03:27:30.305Z,623.01
2023-04-26T03:28:30.308Z,623.13
2023-04-26T03:29:30.286Z,623.13
2023-04-26T03:30:30.312Z,623.14
2023-04-26T03:31:30.304Z,623.26
2023-04-26T03:32:30.269Z,623.36
2023-04-26T03:33:30.240Z,623.62
2023-04-26T03:34:30.242Z,623.80
2023-04-26T03:35:30.231Z,623.84
2023-04-26T03:36:30.206Z,623.91
2023-04-26T03:37:30.205Z,623.67
2023-04-26T03:38:30.192Z,623.59
2023-04-26T03:39:30.232Z,623.61
2023-04-26T03:40:30.177Z,623.80
2023-04-26T03:41:30.975Z,623.96
2023-04-26T03:42:30.169Z,623.87
2023-04-26T03:43:30.137Z,624.45
2023-04-26T03:44:31.233Z,625.65
2023-04-26T03:45:30.125Z,627.16
2023-04-26T03:46:30.178Z,625.32
2023-04-26T03:47:30.112Z,625.44
2023-04-26T03:48:30.076Z,626.22
2023-04-26T03:49:30.060Z,626.37
2023-04-26T03:50:30.079Z,626.42
2023-04-26T03:51:30.036Z,626.65
2023-04-26T03:52:30.043Z,624.47
2023-04-26T03:53:30.034Z,623.40
2023-04-26T03:54:30.002Z,623.33
2023-04-26T03:55:30.033Z,624.04
2023-04-26T03:56:30.016Z,623.54
2023-04-26T03:57:29.985Z,622.94
2023-04-26T03:58:29.963Z,622.88
2023-04-26T03:59:29.960Z,622.89
2023-04-26T04:00:29.949Z,623.00
2023-04-26T04:01:29.942Z,623.13
2023-04-26T04:02:30.141Z,623.48
2023-04-26T04:03:30.092Z,623.35
2023-04-26T04:04:29.972Z,623.34
2023-04-26T04:05:30.025Z,624.19
2023-04-26T04:06:29.877Z,623.38
2023-04-26T04:07:29.849Z,623.75
2023-04-26T04:08:29.841Z,623.37
2023-04-26T04:09:29.834Z,623.54
2023-04-26T04:10:29.826Z,623.45
2023-04-26T04:11:29.833Z,623.55
2023-04-26T04:12:29.809Z,623.35
2023-04-26T04:13:29.827Z,623.47
2023-04-26T04:14:29.771Z,623.52
2023-04-26T04:15:29.800Z,623.19
2023-04-26T04:16:29.873Z,623.20
2023-04-26T04:17:29.749Z,623.24
2023-04-26T04:18:29.760Z,623.29
2023-04-26T04:19:29.717Z,623.68
2023-04-26T04:20:29.706Z,623.44
2023-04-26T04:21:29.703Z,623.26
2023-04-26T04:22:29.707Z,623.33
2023-04-26T04:23:29.688Z,623.71
2023-04-26T04:24:29.662Z,624.59
2023-04-26T04:25:29.648Z,625.10
2023-04-26T04:26:29.642Z,624.82
2023-04-26T04:27:29.638Z,624.32
2023-04-26T04:28:29.617Z,624.19
2023-04-26T04:29:29.600Z,624.09
2023-04-26T04:30:29.617Z,624.40
2023-04-26T04:31:29.613Z,625.32
2023-04-26T04:32:29.611Z,627.76
2023-04-26T04:33:29.562Z,630.31
2023-04-26T04:34:29.571Z,632.73
2023-04-26T04:35:29.536Z,635.32
2023-04-26T04:36:29.536Z,636.16
2023-04-26T04:37:29.527Z,636.01
2023-04-26T04:38:29.528Z,636.37
2023-04-26T04:39:29.488Z,636.47
2023-04-26T04:40:29.493Z,636.72
2023-04-26T04:41:29.465Z,636.38
2023-04-26T04:42:29.470Z,636.15
2023-04-26T04:43:29.454Z,635.96
2023-04-26T04:44:36.951Z,635.55
2023-04-26T04:45:29.418Z,637.29
2023-04-26T04:46:29.461Z,635.01
2023-04-26T04:47:29.406Z,633.62
2023-04-26T04:48:29.398Z,630.62
2023-04-26T04:49:29.369Z,628.93
2023-04-26T04:50:29.380Z,627.95
2023-04-26T04:51:29.358Z,627.09
2023-04-26T04:52:29.345Z,626.53
2023-04-26T04:53:29.357Z,626.41
2023-04-26T04:54:29.324Z,626.33
2023-04-26T04:55:29.313Z,626.47
2023-04-26T04:56:29.322Z,625.68
2023-04-26T04:57:29.301Z,625.76
2023-04-26T04:58:29.274Z,624.12
2023-04-26T04:59:29.276Z,623.16
2023-04-26T05:00:29.284Z,623.00
2023-04-26T05:01:29.295Z,623.08
2023-04-26T05:02:29.338Z,623.58
2023-04-26T05:03:29.343Z,623.24
2023-04-26T05:04:29.418Z,622.83
2023-04-26T05:05:29.213Z,622.77
2023-04-26T05:06:29.205Z,622.84
2023-04-26T05:07:29.284Z,622.96
2023-04-26T05:08:29.163Z,623.08
2023-04-26T05:09:29.165Z,623.14
2023-04-26T05:10:29.283Z,623.21
2023-04-26T05:11:29.128Z,623.43
2023-04-26T05:12:29.115Z,624.49
2023-04-26T05:13:29.110Z,625.03
2023-04-26T05:14:29.118Z,625.16
2023-04-26T05:15:29.100Z,624.93
2023-04-26T05:16:29.150Z,625.54
2023-04-26T05:17:29.143Z,626.06
2023-04-26T05:18:29.065Z,625.81
2023-04-26T05:19:29.088Z,626.13
2023-04-26T05:20:29.031Z,626.00
2023-04-26T05:21:29.013Z,625.47
2023-04-26T05:22:29.048Z,625.69
2023-04-26T05:23:29.000Z,626.64
2023-04-26T05:24:28.987Z,626.87
2023-04-26T05:25:28.977Z,625.86
2023-04-26T05:26:28.986Z,625.02
2023-04-26T05:27:28.953Z,624.34
2023-04-26T05:28:28.963Z,625.21
2023-04-26T05:29:28.934Z,625.67
2023-04-26T05:30:28.935Z,624.01
2023-04-26T05:31:28.994Z,623.39
2023-04-26T05:32:28.924Z,623.94
2023-04-26T05:33:28.894Z,623.72
2023-04-26T05:34:28.889Z,624.34
2023-04-26T05:35:28.868Z,625.38
2023-04-26T05:36:30.061Z,625.24
2023-04-26T05:37:28.844Z,624.85
2023-04-26T05:38:28.991Z,624.63
2023-04-26T05:39:28.857Z,625.07
2023-04-26T05:40:28.839Z,624.75
2023-04-26T05:41:28.810Z,625.27
2023-04-26T05:42:28.814Z,627.38
2023-04-26T05:43:28.799Z,630.29
2023-04-26T05:44:28.770Z,627.41
2023-04-26T05:45:28.817Z,625.38
2023-04-26T05:46:28.896Z,623.26
2023-04-26T05:47:28.755Z,623.27
2023-04-26T05:48:28.760Z,623.22
2023-04-26T05:49:28.909Z,623.14
2023-04-26T05:50:28.728Z,623.33
2023-04-26T05:51:28.810Z,623.41
2023-04-26T05:52:28.694Z,623.42
2023-04-26T05:53:28.702Z,623.73
2023-04-26T05:54:28.730Z,624.11
2023-04-26T05:55:29.475Z,624.47
2023-04-26T05:56:28.665Z,623.87
2023-04-26T05:57:28.652Z,623.35
2023-04-26T05:58:28.623Z,623.03
2023-04-26T05:59:28.624Z,623.02
2023-04-26T06:00:28.716Z,623.15
2023-04-26T06:01:29.172Z,623.11
2023-04-26T06:02:28.922Z,623.06
2023-04-26T06:03:28.941Z,623.08
2023-04-26T06:04:28.698Z,623.03
2023-04-26T06:05:28.617Z,623.09
2023-04-26T06:06:28.639Z,623.14
2023-04-26T06:07:28.514Z,623.20
2023-04-26T06:08:28.523Z,624.89
2023-04-26T06:09:28.509Z,624.25
2023-04-26T06:10:28.603Z,623.08
2023-04-26T06:11:28.519Z,623.04
2023-04-26T06:12:28.470Z,623.16
2023-04-26T06:13:28.484Z,623.10
2023-04-26T06:14:30.691Z,623.12
2023-04-26T06:15:28.440Z,623.07
2023-04-26T06:16:28.493Z,623.00
2023-04-26T06:17:28.437Z,623.00
2023-04-26T06:18:28.419Z,623.03
2023-04-26T06:19:28.413Z,625.30
2023-04-26T06:20:28.477Z,631.56
2023-04-26T06:21:28.375Z,633.58
2023-04-26T06:22:28.392Z,640.83
2023-04-26T06:23:28.343Z,645.02
2023-04-26T06:24:28.353Z,643.53
2023-04-26T06:25:28.332Z,640.18
2023-04-26T06:26:28.361Z,640.49
2023-04-26T06:27:28.324Z,631.92
2023-04-26T06:28:28.295Z,631.02
2023-04-26T06:29:28.313Z,632.30
2023-04-26T06:30:28.405Z,633.77
2023-04-26T06:31:28.340Z,637.52
2023-04-26T06:32:28.284Z,645.69
2023-04-26T06:33:28.291Z,637.18
2023-04-26T06:34:28.244Z,637.50
2023-04-26T06:35:28.212Z,635.11
2023-04-26T06:36:28.228Z,633.49
2023-04-26T06:37:28.224Z,632.45
2023-04-26T06:38:28.188Z,635.32
2023-04-26T06:39:29.059Z,639.34
2023-04-26T06:40:28.178Z,641.46
2023-04-26T06:41:28.175Z,642.03
2023-04-26T06:42:28.245Z,635.74
2023-04-26T06:43:28.132Z,632.66
2023-04-26T06:44:28.139Z,628.51
2023-04-26T06:47:06.604Z,637.19
2023-04-26T06:48:06.672Z,637.25
2023-04-26T06:49:06.580Z,635.38
2023-04-26T06:50:06.570Z,634.38
2023-04-26T06:51:06.597Z,632.20
2023-04-26T06:52:07.031Z,630.20
2023-04-26T06:53:06.543Z,627.87
2023-04-26T06:54:06.523Z,629.05
2023-04-26T06:55:06.508Z,629.17
2023-04-26T06:56:06.533Z,629.91
2023-04-26T06:57:06.499Z,632.47
2023-04-26T06:58:06.565Z,634.61
2023-04-26T06:59:06.507Z,636.42
2023-04-26T07:00:06.466Z,636.44
2023-04-26T07:01:06.441Z,635.49
2023-04-26T07:02:06.625Z,633.82
2023-04-26T07:03:06.540Z,634.27
2023-04-26T07:04:06.589Z,636.59
2023-04-26T07:05:06.498Z,643.22
2023-04-26T07:06:06.400Z,649.72
2023-04-26T07:07:06.418Z,657.76
2023-04-26T07:08:06.393Z,656.97
2023-04-26T07:09:06.426Z,645.26
2023-04-26T07:10:06.354Z,639.50
2023-04-26T07:11:06.374Z,634.79
2023-04-26T07:12:06.794Z,632.59
2023-04-26T07:13:08.226Z,634.70
2023-04-26T07:14:06.504Z,637.14
2023-04-26T07:15:06.359Z,637.73
2023-04-26T07:16:06.327Z,645.37
2023-04-26T07:17:06.315Z,647.26
2023-04-26T07:18:06.334Z,647.86
2023-04-26T07:19:06.284Z,644.57
2023-04-26T07:20:06.241Z,642.03
2023-04-26T07:21:06.233Z,641.46
2023-04-26T07:22:06.259Z,639.79
2023-04-26T07:23:06.212Z,633.31
2023-04-26T07:24:06.272Z,630.65
2023-04-26T07:25:06.299Z,633.05
2023-04-26T07:26:06.200Z,639.83
2023-04-26T07:27:06.180Z,649.34
2023-04-26T07:28:06.149Z,651.42
2023-04-26T07:29:06.143Z,661.93
2023-04-26T07:30:06.161Z,667.95
2023-04-26T07:31:08.786Z,668.53
2023-04-26T07:32:07.118Z,669.66
2023-04-26T07:33:06.206Z,670.09
2023-04-26T07:34:06.123Z,662.80
2023-04-26T07:35:06.144Z,659.08
2023-04-26T07:36:06.089Z,656.81
2023-04-26T07:37:06.056Z,657.80
2023-04-26T07:38:06.059Z,662.36
2023-04-26T07:39:06.052Z,660.36
2023-04-26T07:40:06.042Z,661.08
2023-04-26T07:41:06.032Z,653.70
2023-04-26T07:42:05.995Z,653.47
2023-04-26T07:43:06.049Z,654.56
2023-04-26T07:44:05.977Z,653.90
2023-04-26T07:45:05.984Z,649.97
2023-04-26T07:46:06.073Z,656.74
2023-04-26T07:47:05.944Z,660.45
2023-04-26T07:48:06.008Z,656.24
2023-04-26T07:49:05.940Z,653.41
2023-04-26T07:50:05.974Z,657.49
2023-04-26T07:51:05.903Z,662.55
2023-04-26T07:52:05.932Z,663.48
2023-04-26T07:53:05.948Z,667.69
2023-04-26T07:54:05.932Z,670.31
2023-04-26T07:55:05.883Z,668.36
2023-04-26T07:56:05.999Z,661.67
2023-04-26T07:57:05.846Z,662.20
2023-04-26T07:58:05.854Z,658.72
2023-04-26T07:59:05.864Z,658.41
2023-04-26T08:00:05.826Z,657.95
2023-04-26T08:01:05.813Z,661.25
2023-04-26T08:02:05.839Z,661.98
2023-04-26T08:03:05.980Z,662.88
2023-04-26T08:04:06.075Z,661.85
2023-04-26T08:05:05.984Z,663.07
2023-04-26T08:06:05.873Z,671.99
2023-04-26T08:07:05.750Z,667.43
2023-04-26T08:08:05.794Z,663.56
2023-04-26T08:09:05.702Z,660.44
2023-04-26T08:10:05.701Z,664.47
2023-04-26T08:11:05.696Z,675.88
2023-04-26T08:12:05.703Z,674.56
2023-04-26T08:13:05.664Z,679.65
2023-04-26T08:14:05.641Z,687.11
2023-04-26T08:15:05.647Z,686.83
2023-04-26T08:16:05.649Z,693.02
2023-04-26T08:17:05.714Z,697.55
2023-04-26T08:18:05.644Z,695.06
2023-04-26T08:19:05.605Z,698.11
2023-04-26T08:20:05.586Z,702.72
2023-04-26T08:21:05.579Z,707.85
2023-04-26T08:22:05.558Z,701.07
2023-04-26T08:23:05.569Z,703.37
2023-04-26T08:24:05.547Z,699.40
2023-04-26T08:25:05.725Z,699.46
2023-04-26T08:26:05.537Z,700.43
2023-04-26T08:27:05.531Z,697.11
2023-04-26T08:28:05.498Z,708.26
2023-04-26T08:29:05.497Z,711.86
2023-04-26T08:30:05.471Z,707.68
2023-04-26T08:31:05.555Z,708.12
2023-04-26T08:32:05.473Z,698.79
2023-04-26T08:33:05.519Z,703.09
2023-04-26T08:34:05.499Z,707.42
2023-04-26T08:35:06.073Z,707.56
2023-04-26T08:36:05.406Z,705.48
2023-04-26T08:37:05.456Z,702.81
2023-04-26T08:38:05.394Z,711.33
2023-04-26T08:39:05.379Z,710.34
2023-04-26T08:40:05.417Z,713.06
2023-04-26T08:41:05.383Z,710.85
2023-04-26T08:42:05.349Z,711.27
2023-04-26T08:43:05.379Z,711.44
2023-04-26T08:44:05.341Z,704.42
2023-04-26T08:45:05.312Z,702.81
2023-04-26T08:46:05.342Z,702.21
2023-04-26T08:47:12.809Z,694.24
2023-04-26T08:48:05.318Z,692.59
2023-04-26T08:49:05.275Z,689.66
2023-04-26T08:50:05.311Z,698.63
2023-04-26T08:51:05.278Z,699.03
2023-04-26T08:52:05.246Z,694.59
2023-04-26T08:53:05.241Z,698.17
2023-04-26T08:54:05.237Z,710.97
2023-04-26T08:55:06.095Z,708.83
2023-04-26T08:56:05.214Z,702.13
2023-04-26T08:57:05.208Z,698.45
2023-04-26T08:58:05.206Z,701.56
2023-04-26T08:59:05.173Z,712.91
2023-04-26T09:00:05.194Z,713.23
2023-04-26T09:01:05.168Z,710.77
2023-04-26T09:02:05.215Z,707.16
2023-04-26T09:03:05.275Z,704.90
2023-04-26T09:04:05.323Z,704.29
2023-04-26T09:05:05.581Z,706.60
2023-04-26T09:06:05.207Z,707.17
2023-04-26T09:07:05.091Z,705.89
2023-04-26T09:08:05.097Z,711.53
2023-04-26T09:09:05.094Z,708.27
2023-04-26T09:10:05.056Z,722.48
2023-04-26T09:11:05.060Z,731.37
2023-04-26T09:12:05.047Z,733.38
2023-04-26T09:13:05.008Z,727.69
2023-04-26T09:14:05.001Z,728.56
2023-04-26T09:15:05.011Z,720.73
2023-04-26T09:16:05.327Z,713.01
2023-04-26T09:17:04.975Z,716.92
2023-04-26T09:18:05.043Z,722.02
2023-04-26T09:19:04.968Z,723.18
2023-04-26T09:20:07.186Z,722.29
2023-04-26T09:21:04.945Z,715.72
2023-04-26T09:22:05.008Z,711.66
2023-04-26T09:23:04.939Z,709.26
2023-04-26T09:24:04.893Z,710.49
2023-04-26T09:25:04.898Z,709.22
2023-04-26T09:26:04.861Z,703.91
2023-04-26T09:27:04.853Z,706.55
2023-04-26T09:28:05.559Z,713.09
2023-04-26T09:29:04.829Z,707.18
2023-04-26T09:30:04.837Z,709.94
2023-04-26T09:31:04.837Z,698.35
2023-04-26T09:32:04.794Z,696.66
2023-04-26T09:33:04.834Z,696.15
2023-04-26T09:34:04.774Z,699.83
2023-04-26T09:35:04.793Z,701.98
2023-04-26T09:36:04.767Z,700.36
2023-04-26T09:37:04.748Z,696.95
2023-04-26T09:38:09.748Z,702.47
2023-04-26T09:39:05.729Z,710.60
2023-04-26T09:40:04.716Z,703.57
2023-04-26T09:41:04.724Z,703.55
2023-04-26T09:42:04.699Z,705.71
2023-04-26T09:43:04.679Z,709.45
2023-04-26T09:44:04.682Z,710.97
2023-04-26T09:45:04.650Z,705.61
2023-04-26T09:46:04.666Z,707.73
2023-04-26T09:47:04.768Z,708.03
2023-04-26T09:48:05.154Z,705.92
2023-04-26T09:49:04.953Z,702.79
2023-04-26T09:50:04.684Z,698.74
2023-04-26T09:51:04.597Z,701.66
2023-04-26T09:52:04.584Z,699.87
2023-04-26T09:53:04.626Z,702.31
2023-04-26T09:54:04.637Z,702.68
2023-04-26T09:55:04.555Z,711.00
2023-04-26T09:56:04.620Z,713.66
2023-04-26T09:57:04.525Z,718.17
2023-04-26T09:58:04.525Z,713.91
2023-04-26T09:59:04.658Z,709.46
2023-04-26T10:00:04.630Z,705.45
2023-04-26T10:01:04.736Z,723.52
2023-04-26T10:02:04.514Z,728.56
2023-04-26T10:03:04.788Z,721.88
2023-04-26T10:04:04.683Z,716.32
2023-04-26T10:05:04.681Z,726.17
2023-04-26T10:06:04.487Z,723.29
2023-04-26T10:07:04.442Z,727.23
2023-04-26T10:08:04.414Z,729.14
2023-04-26T10:09:04.430Z,740.13
2023-04-26T10:10:04.416Z,732.41
2023-04-26T10:11:04.371Z,732.15
2023-04-26T10:12:04.362Z,736.54
2023-04-26T10:13:04.879Z,734.94
2023-04-26T10:14:04.345Z,739.98
2023-04-26T10:15:04.671Z,742.60
2023-04-26T10:16:04.348Z,730.71
2023-04-26T10:17:04.531Z,733.05
2023-04-26T10:18:04.477Z,729.25
2023-04-26T10:19:04.284Z,727.64
2023-04-26T10:20:04.289Z,726.99
2023-04-26T10:21:04.272Z,735.57
2023-04-26T10:22:04.626Z,731.08
2023-04-26T10:23:04.241Z,732.65
2023-04-26T10:24:04.242Z,730.36
2023-04-26T10:25:04.253Z,732.28
2023-04-26T10:26:04.380Z,731.35
2023-04-26T10:27:04.224Z,726.41
2023-04-26T10:28:04.220Z,727.61
2023-04-26T10:29:04.344Z,732.83
2023-04-26T10:30:04.168Z,730.49
2023-04-26T10:31:04.152Z,733.81
2023-04-26T10:32:04.176Z,725.11
2023-04-26T10:33:04.173Z,729.26
2023-04-26T10:34:04.121Z,732.60
2023-04-26T10:35:04.145Z,729.08
2023-04-26T10:36:04.135Z,734.59
2023-04-26T10:37:04.187Z,725.09
2023-04-26T10:38:04.136Z,730.61
2023-04-26T10:39:04.143Z,748.96
2023-04-26T10:40:04.073Z,745.77
2023-04-26T10:41:04.045Z,742.67
2023-04-26T10:42:04.070Z,734.57
2023-04-26T10:43:04.098Z,735.11
2023-04-26T10:44:04.103Z,755.82
2023-04-26T10:45:04.000Z,748.44
2023-04-26T10:46:04.147Z,755.02
2023-04-26T10:47:03.982Z,753.69
2023-04-26T10:48:11.491Z,736.81
2023-04-26T10:49:04.046Z,742.14
2023-04-26T10:50:05.648Z,750.68
2023-04-26T10:51:03.934Z,749.43
2023-04-26T10:52:03.937Z,739.86
2023-04-26T10:53:04.133Z,737.36
2023-04-26T10:54:03.904Z,739.50
2023-04-26T10:55:03.923Z,763.45
2023-04-26T10:56:04.011Z,753.16
2023-04-26T10:57:03.905Z,750.58
2023-04-26T10:58:03.903Z,746.17
2023-04-26T10:59:08.461Z,753.39
2023-04-26T11:00:03.840Z,745.24
2023-04-26T11:01:03.864Z,754.84
2023-04-26T11:02:03.814Z,752.16
2023-04-26T11:03:04.033Z,749.95
2023-04-26T11:04:03.991Z,764.37
2023-04-26T11:05:03.810Z,760.59
2023-04-26T11:06:03.777Z,761.70
2023-04-26T11:07:03.774Z,762.63
2023-04-26T11:08:03.773Z,760.94
2023-04-26T11:09:03.741Z,755.05
2023-04-26T11:10:03.742Z,758.23
2023-04-26T11:11:03.727Z,761.00
2023-04-26T11:12:03.707Z,766.96
2023-04-26T11:13:03.711Z,768.60
2023-04-26T11:14:03.716Z,754.78
2023-04-26T11:15:03.725Z,768.10
2023-04-26T11:16:03.746Z,780.05
2023-04-26T11:17:03.717Z,769.40
2023-04-26T11:18:03.761Z,771.42
2023-04-26T11:19:03.646Z,760.49
2023-04-26T11:20:03.631Z,753.53
2023-04-26T11:21:03.624Z,757.46
2023-04-26T11:22:03.599Z,749.94
2023-04-26T11:23:03.663Z,763.37
2023-04-26T11:24:03.592Z,769.67
2023-04-26T11:25:03.585Z,778.77
2023-04-26T11:26:03.605Z,773.05
2023-04-26T11:27:03.538Z,770.23
2023-04-26T11:28:03.531Z,782.99
2023-04-26T11:29:03.530Z,782.91
2023-04-26T11:30:03.601Z,776.09
2023-04-26T11:31:03.538Z,773.64
2023-04-26T11:32:03.514Z,769.06
2023-04-26T11:33:03.533Z,752.49
2023-04-26T11:34:03.478Z,754.36
2023-04-26T11:35:03.448Z,756.12
2023-04-26T11:36:03.490Z,761.79
2023-04-26T11:37:03.440Z,775.54
2023-04-26T11:38:03.418Z,777.07
2023-04-26T11:39:03.434Z,786.96
2023-04-26T11:40:03.408Z,795.39
2023-04-26T11:41:03.390Z,792.37
2023-04-26T11:42:03.376Z,791.35
2023-04-26T11:43:03.382Z,788.41
2023-04-26T11:44:03.369Z,781.16
2023-04-26T11:45:03.350Z,787.87
2023-04-26T11:46:03.593Z,779.78
2023-04-26T11:47:03.475Z,770.88
2023-04-26T11:48:03.363Z,781.83
2023-04-26T11:49:03.350Z,787.84
2023-04-26T11:50:03.290Z,780.59
2023-04-26T11:51:03.286Z,782.03
2023-04-26T11:52:03.274Z,781.69
2023-04-26T11:53:03.255Z,779.85
2023-04-26T11:54:03.247Z,772.57
2023-04-26T11:55:03.247Z,771.89
2023-04-26T11:56:03.234Z,774.24
2023-04-26T11:57:03.215Z,786.96
2023-04-26T11:58:03.224Z,783.45
2023-04-26T11:59:03.232Z,795.09
2023-04-26T12:00:03.184Z,788.41
2023-04-26T12:01:03.167Z,794.55
2023-04-26T12:02:03.366Z,809.01
2023-04-26T12:03:03.376Z,806.22
2023-04-26T12:04:03.388Z,796.27
2023-04-26T12:05:03.299Z,787.54
2023-04-26T12:06:03.129Z,779.62
2023-04-26T12:07:03.152Z,782.40
2023-04-26T12:08:03.124Z,781.73
2023-04-26T12:09:03.109Z,776.23
2023-04-26T12:10:03.077Z,777.87
2023-04-26T12:11:03.128Z,777.36
2023-04-26T12:12:03.065Z,770.61
2023-04-26T12:13:03.055Z,789.34
2023-04-26T12:14:03.039Z,794.49
2023-04-26T12:15:03.021Z,792.91
2023-04-26T12:16:07.314Z,791.23
2023-04-26T12:17:03.104Z,782.52
2023-04-26T12:18:03.048Z,770.44
2023-04-26T12:19:02.974Z,786.31
2023-04-26T12:20:02.988Z,788.12
2023-04-26T12:21:02.960Z,777.95
2023-04-26T12:22:02.965Z,762.41
2023-04-26T12:23:02.941Z,752.82
2023-04-26T12:24:02.937Z,757.68
2023-04-26T12:25:02.901Z,754.64
2023-04-26T12:26:02.912Z,766.54
2023-04-26T12:27:02.980Z,767.49
2023-04-26T12:28:02.919Z,757.98
2023-04-26T12:29:02.874Z,769.68
2023-04-26T12:30:02.865Z,773.98